createdAt,value
2022-09-06T00:01:22.343Z,65.57
2022-09-06T00:05:27.022Z,65.71
2022-09-06T00:09:30.146Z,65.70
2022-09-06T00:13:33.873Z,66.06
2022-09-06T00:17:37.050Z,66.22
2022-09-06T00:21:41.530Z,66.22
2022-09-06T00:25:45.090Z,66.34
2022-09-06T00:29:48.226Z,66.30
2022-09-06T00:33:51.970Z,66.54
2022-09-06T00:37:59.545Z,66.93
2022-09-06T00:42:02.714Z,67.05
2022-09-06T00:46:07.482Z,66.94
2022-09-06T00:50:13.028Z,67.21
2022-09-06T00:54:17.778Z,67.32
2022-09-06T00:58:21.010Z,67.17
2022-09-06T01:02:24.514Z,67.25
2022-09-06T01:06:38.715Z,67.32
2022-09-06T01:11:06.664Z,67.35
2022-09-06T01:15:19.643Z,67.50
2022-09-06T01:19:56.608Z,67.69
2022-09-06T01:24:36.168Z,67.81
2022-09-06T01:28:43.938Z,67.75
2022-09-06T01:32:57.659Z,68.05
2022-09-06T01:37:10.290Z,67.92
2022-09-06T01:41:13.752Z,67.84
2022-09-06T01:45:21.495Z,68.07
2022-09-06T01:49:34.882Z,68.15
2022-09-06T01:53:52.050Z,68.19
2022-09-06T01:58:11.619Z,68.20
2022-09-06T02:02:26.810Z,68.58
2022-09-06T02:06:34.059Z,68.40
2022-09-06T02:10:42.395Z,68.40
2022-09-06T02:14:54.564Z,68.59
2022-09-06T02:19:04.588Z,68.99
2022-09-06T02:23:09.426Z,69.00
2022-09-06T02:27:14.546Z,68.85
2022-09-06T02:31:22.748Z,68.82
2022-09-06T02:35:27.766Z,69.04
2022-09-06T02:39:30.919Z,69.36
2022-09-06T02:43:34.355Z,69.64
2022-09-06T02:47:37.724Z,69.58
2022-09-06T02:51:42.768Z,69.53
2022-09-06T02:55:47.795Z,69.91
2022-09-06T02:59:51.496Z,69.95
2022-09-06T03:03:54.852Z,69.98
2022-09-06T03:07:59.860Z,69.95
2022-09-06T03:12:03.124Z,69.94
2022-09-06T03:16:06.363Z,70.09
2022-09-06T03:20:11.607Z,69.98
2022-09-06T03:24:18.732Z,70.30
2022-09-06T03:28:22.862Z,70.68
2022-09-06T03:32:26.007Z,70.35
2022-09-06T03:36:29.696Z,70.76
2022-09-06T03:40:34.649Z,70.52
2022-09-06T03:44:44.111Z,70.81
2022-09-06T03:48:47.452Z,70.71
2022-09-06T03:52:50.617Z,70.60
2022-09-06T03:56:55.187Z,70.69
2022-09-06T04:01:03.201Z,70.70
2022-09-06T04:05:06.934Z,70.69
2022-09-06T04:09:10.022Z,70.70
2022-09-06T04:13:14.528Z,70.86
2022-09-06T04:17:17.615Z,71.08
2022-09-06T04:21:20.783Z,71.18
2022-09-06T04:25:24.037Z,71.22
2022-09-06T04:29:28.533Z,71.71
2022-09-06T04:33:32.407Z,71.97
2022-09-06T04:37:35.518Z,72.13
2022-09-06T04:41:38.595Z,72.27
2022-09-06T04:45:43.912Z,72.34
2022-09-06T04:49:48.295Z,72.52
2022-09-06T04:53:51.657Z,72.51
2022-09-06T04:57:55.290Z,72.47
2022-09-06T05:02:00.111Z,72.61
2022-09-06T05:06:08.522Z,72.60
2022-09-06T05:10:11.962Z,72.61
2022-09-06T05:14:15.266Z,72.72
2022-09-06T05:18:19.725Z,72.93
2022-09-06T05:22:22.823Z,72.83
2022-09-06T05:26:26.199Z,72.89
2022-09-06T05:30:29.294Z,72.92
2022-09-06T05:34:34.052Z,73.07
2022-09-06T05:38:37.364Z,73.24
2022-09-06T05:42:41.536Z,73.45
2022-09-06T05:46:45.431Z,73.50
2022-09-06T05:51:00.049Z,73.68
2022-09-06T05:55:03.619Z,73.66
2022-09-06T05:59:07.007Z,73.61
2022-09-06T06:03:10.083Z,73.68
2022-09-06T06:07:15.607Z,73.63
2022-09-06T06:11:19.259Z,73.63
2022-09-06T06:15:22.316Z,73.65
2022-09-06T06:19:26.708Z,73.60
2022-09-06T06:23:31.372Z,73.19
2022-09-06T06:27:36.880Z,72.85
2022-09-06T06:31:40.191Z,72.48
2022-09-06T06:35:43.751Z,72.17
2022-09-06T06:39:48.485Z,71.99
2022-09-06T06:43:53.383Z,71.93
2022-09-06T06:47:56.673Z,71.41
2022-09-06T06:52:00.133Z,71.28
2022-09-06T06:56:15.236Z,71.05
2022-09-06T07:00:19.737Z,71.29
2022-09-06T07:04:23.194Z,71.21
2022-09-06T07:08:26.486Z,70.55
2022-09-06T07:12:31.141Z,69.82
2022-09-06T07:16:34.347Z,69.39
2022-09-06T07:25:01.121Z,68.16
2022-09-06T07:29:06.962Z,67.65
2022-09-06T07:33:10.299Z,66.39
2022-09-06T07:37:13.608Z,66.12
2022-09-06T07:41:17.495Z,65.66
2022-09-06T07:45:21.985Z,64.67
2022-09-06T07:49:25.143Z,64.18
2022-09-06T07:53:31.203Z,63.96
2022-09-06T07:57:34.613Z,63.51
2022-09-06T08:01:40.389Z,63.45
2022-09-06T08:10:07.467Z,62.94
2022-09-06T08:14:11.362Z,62.66
2022-09-06T08:18:16.059Z,61.82
2022-09-06T08:22:19.526Z,61.79
2022-09-06T08:26:29.034Z,61.20
2022-09-06T08:30:32.367Z,60.91
2022-09-06T08:34:43.683Z,61.30
2022-09-06T08:38:46.971Z,60.52
2022-09-06T08:42:50.579Z,60.30
2022-09-06T08:46:59.213Z,59.72
2022-09-06T08:51:20.084Z,59.29
2022-09-06T08:55:35.264Z,58.92
2022-09-06T08:59:40.378Z,59.22
2022-09-06T09:03:44.875Z,59.43
2022-09-06T09:07:57.045Z,59.08
2022-09-06T09:12:02.022Z,58.77
2022-09-06T09:16:06.334Z,58.22
2022-09-06T09:20:10.315Z,58.51
2022-09-06T09:24:16.352Z,58.07
2022-09-06T09:28:24.114Z,58.61
2022-09-06T09:32:32.062Z,57.85
2022-09-06T09:36:35.352Z,57.27
2022-09-06T09:40:42.037Z,57.40
2022-09-06T09:44:45.867Z,57.60
2022-09-06T09:49:03.284Z,56.91
2022-09-06T09:53:10.421Z,57.63
2022-09-06T09:57:18.782Z,56.90
2022-09-06T10:01:26.682Z,56.54
2022-09-06T10:05:30.235Z,56.10
2022-09-06T10:09:36.983Z,55.69
2022-09-06T10:13:43.235Z,55.92
2022-09-06T10:17:50.433Z,56.39
2022-09-06T10:21:59.695Z,55.92
2022-09-06T10:26:07.346Z,55.84
2022-09-06T10:30:14.505Z,55.47
2022-09-06T10:34:48.807Z,54.13
2022-09-06T10:38:57.547Z,54.53
2022-09-06T10:43:08.780Z,54.60
2022-09-06T10:47:15.968Z,54.47
2022-09-06T10:51:30.998Z,54.93
2022-09-06T10:55:34.564Z,53.19
2022-09-06T10:59:43.063Z,53.51
2022-09-06T11:12:34.150Z,53.70
2022-09-06T11:16:44.732Z,53.54
2022-09-06T11:21:03.337Z,53.91
2022-09-06T11:25:29.695Z,52.96
2022-09-06T11:29:34.268Z,53.19
2022-09-06T11:33:39.920Z,53.54
2022-09-06T11:37:49.658Z,53.01
2022-09-06T11:41:52.691Z,52.64
2022-09-06T11:45:55.937Z,53.48
2022-09-06T11:49:59.127Z,53.03
2022-09-06T11:54:21.883Z,53.69
2022-09-06T11:58:29.929Z,52.34
2022-09-06T12:02:38.406Z,52.65
2022-09-06T12:06:43.805Z,52.89
2022-09-06T12:10:56.726Z,53.24
2022-09-06T12:15:13.127Z,53.01
2022-09-06T12:19:44.070Z,52.17
2022-09-06T12:23:47.541Z,51.81
2022-09-06T12:27:58.148Z,51.50
2022-09-06T12:32:02.067Z,52.14
2022-09-06T12:36:15.362Z,51.84
2022-09-06T12:40:20.685Z,51.42
2022-09-06T12:44:31.760Z,52.25
2022-09-06T12:48:41.225Z,52.24
2022-09-06T12:52:50.669Z,52.60
2022-09-06T12:56:55.012Z,52.30
2022-09-06T13:01:08.638Z,51.66
2022-09-06T13:05:13.410Z,50.74
2022-09-06T13:09:20.429Z,51.60
2022-09-06T13:13:26.118Z,51.18
2022-09-06T13:17:31.524Z,50.95
2022-09-06T13:21:35.405Z,51.35
2022-09-06T13:25:49.551Z,50.69
2022-09-06T13:29:57.520Z,51.17
2022-09-06T13:34:02.268Z,50.57
2022-09-06T13:38:33.708Z,50.79
2022-09-06T13:42:37.840Z,50.32
2022-09-06T13:46:41.323Z,50.47
2022-09-06T13:50:45.830Z,50.04
2022-09-06T13:54:49.093Z,50.05
2022-09-06T13:58:52.350Z,50.85
2022-09-06T14:02:55.871Z,51.08
2022-09-06T14:07:00.523Z,51.52
2022-09-06T14:11:03.935Z,51.04
2022-09-06T14:15:08.347Z,51.58
2022-09-06T14:19:11.806Z,51.59
2022-09-06T14:23:16.350Z,51.57
2022-09-06T14:27:19.698Z,51.27
2022-09-06T14:31:25.980Z,51.08
2022-09-06T14:35:29.186Z,51.75
2022-09-06T14:39:33.721Z,51.40
2022-09-06T14:43:37.838Z,52.12
2022-09-06T14:47:41.503Z,52.12
2022-09-06T14:51:45.964Z,51.91
2022-09-06T14:55:50.574Z,51.64
2022-09-06T14:59:53.868Z,51.69
2022-09-06T15:03:58.932Z,52.01
2022-09-06T15:08:02.496Z,51.39
2022-09-06T15:12:07.341Z,51.62
2022-09-06T15:16:11.932Z,51.74
2022-09-06T15:20:15.172Z,52.01
2022-09-06T15:24:18.791Z,51.71
2022-09-06T15:28:23.362Z,51.05
2022-09-06T15:32:26.717Z,51.13
2022-09-06T15:36:30.288Z,51.97
2022-09-06T15:40:33.583Z,51.96
2022-09-06T15:44:38.340Z,51.75
2022-09-06T15:48:43.702Z,52.38
2022-09-06T15:52:46.887Z,52.01
2022-09-06T15:56:50.407Z,51.95
2022-09-06T16:01:07.821Z,51.72
2022-09-06T16:05:11.255Z,51.93
2022-09-06T16:09:17.591Z,51.84
2022-09-06T16:13:20.815Z,51.51
2022-09-06T16:17:27.512Z,51.80
2022-09-06T16:21:32.931Z,51.74
2022-09-06T16:25:36.343Z,52.02
2022-09-06T16:29:39.611Z,52.26
2022-09-06T16:33:45.660Z,52.44
2022-09-06T16:37:49.123Z,53.17
2022-09-06T16:41:52.736Z,52.94
2022-09-06T16:45:59.812Z,52.70
2022-09-06T16:50:05.075Z,52.60
2022-09-06T16:54:08.507Z,52.46
2022-09-06T16:58:11.739Z,52.06
2022-09-06T17:02:15.038Z,52.15
2022-09-06T17:06:21.298Z,51.96
2022-09-06T17:10:24.522Z,52.11
2022-09-06T17:14:27.893Z,51.76
2022-09-06T17:18:31.294Z,52.33
2022-09-06T17:22:36.410Z,52.04
2022-09-06T17:26:40.390Z,51.99
2022-09-06T17:30:43.736Z,52.45
2022-09-06T17:34:47.164Z,52.69
2022-09-06T17:38:53.568Z,52.53
2022-09-06T17:42:57.112Z,52.75
2022-09-06T17:47:12.623Z,52.91
2022-09-06T17:51:17.016Z,53.10
2022-09-06T17:55:21.988Z,52.90
2022-09-06T17:59:25.360Z,52.74
2022-09-06T18:03:28.563Z,52.94
2022-09-06T18:07:32.905Z,53.60
2022-09-06T18:11:39.254Z,53.20
2022-09-06T18:15:42.791Z,53.39
2022-09-06T18:19:46.204Z,53.58
2022-09-06T18:23:49.595Z,53.52
2022-09-06T18:27:54.248Z,54.37
2022-09-06T18:31:58.002Z,54.30
2022-09-06T18:36:02.120Z,54.43
2022-09-06T18:40:06.450Z,54.34
2022-09-06T18:44:11.572Z,54.53
2022-09-06T18:48:16.029Z,54.89
2022-09-06T18:52:20.778Z,55.01
2022-09-06T18:56:24.838Z,55.45
2022-09-06T19:00:29.595Z,55.67
2022-09-06T19:04:33.118Z,55.73
2022-09-06T19:08:36.823Z,55.95
2022-09-06T19:12:40.692Z,56.77
2022-09-06T19:16:46.479Z,56.81
2022-09-06T19:20:57.883Z,57.29
2022-09-06T19:25:01.295Z,57.11
2022-09-06T19:29:06.935Z,56.89
2022-09-06T19:33:12.114Z,57.39
2022-09-06T19:37:17.367Z,57.84
2022-09-06T19:41:20.601Z,58.23
2022-09-06T19:45:23.770Z,58.15
2022-09-06T19:49:29.574Z,58.10
2022-09-06T19:53:33.307Z,58.24
2022-09-06T19:57:36.496Z,58.93
2022-09-06T20:01:41.270Z,58.48
2022-09-06T20:05:45.934Z,58.93
2022-09-06T20:09:52.432Z,58.87
2022-09-06T20:13:56.377Z,59.22
2022-09-06T20:17:59.694Z,59.70
2022-09-06T20:22:04.521Z,59.87
2022-09-06T20:26:10.279Z,60.02
2022-09-06T20:30:13.727Z,60.48
2022-09-06T20:34:19.443Z,61.01
2022-09-06T20:38:24.786Z,60.41
2022-09-06T20:42:28.177Z,61.04
2022-09-06T20:46:33.982Z,61.34
2022-09-06T20:50:37.504Z,61.39
2022-09-06T20:54:42.335Z,61.85
2022-09-06T20:58:49.765Z,61.25
2022-09-06T21:02:53.205Z,61.29
2022-09-06T21:06:56.639Z,61.45
2022-09-06T21:11:02.205Z,62.06
2022-09-06T21:15:06.396Z,62.19
2022-09-06T21:19:11.264Z,61.85
2022-09-06T21:23:14.707Z,62.40
2022-09-06T21:27:19.569Z,62.58
2022-09-06T21:31:24.525Z,62.96
2022-09-06T21:35:27.812Z,62.80
2022-09-06T21:39:31.207Z,63.05
2022-09-06T21:43:36.503Z,62.72
2022-09-06T21:47:39.971Z,63.00
2022-09-06T21:51:43.958Z,63.08
2022-09-06T21:55:47.202Z,63.42
2022-09-06T21:59:51.791Z,63.52
2022-09-06T22:03:55.473Z,63.30
2022-09-06T22:07:58.809Z,63.45
2022-09-06T22:12:02.148Z,63.54
2022-09-06T22:16:08.212Z,63.73
2022-09-06T22:20:12.441Z,64.04
2022-09-06T22:24:17.506Z,64.37
2022-09-06T22:28:21.377Z,64.13
2022-09-06T22:32:26.137Z,64.33
2022-09-06T22:36:29.805Z,64.43
2022-09-06T22:40:33.032Z,64.75
2022-09-06T22:44:36.393Z,64.95
2022-09-06T22:48:41.167Z,65.10
2022-09-06T22:52:44.360Z,64.94
2022-09-06T22:56:47.727Z,65.28
2022-09-06T23:00:51.370Z,65.38
2022-09-06T23:04:56.113Z,65.38
2022-09-06T23:09:00.114Z,65.46
2022-09-06T23:13:03.280Z,65.33
2022-09-06T23:17:06.564Z,65.70
2022-09-06T23:21:13.171Z,65.92
2022-09-06T23:25:16.540Z,66.01
2022-09-06T23:29:20.000Z,66.24
2022-09-06T23:33:23.684Z,66.28
2022-09-06T23:37:28.438Z,66.41
2022-09-06T23:41:32.059Z,66.79
2022-09-06T23:45:35.284Z,66.89
2022-09-06T23:49:38.679Z,66.98
2022-09-06T23:53:43.629Z,67.20
2022-09-06T23:57:46.806Z,67.36
